sensor_id;sensor_type;location;lat;lon;timestamp;pressure;altitude;pressure_sealevel;temperature;humidity
17607;BME280;69222;52.242;20.980;2023-05-20T00:01:40;101458.03;;;13.90;72.37
17607;BME280;69222;52.242;20.980;2023-05-20T00:04:08;101452.00;;;13.85;72.73
17607;BME280;69222;52.242;20.980;2023-05-20T00:06:36;101445.97;;;13.85;72.51
17607;BME280;69222;52.242;20.980;2023-05-20T00:09:04;101445.94;;;13.83;72.36
17607;BME280;69222;52.242;20.980;2023-05-20T00:11:32;101444.22;;;13.81;72.93
17607;BME280;69222;52.242;20.980;2023-05-20T00:14:00;101446.81;;;13.79;72.75
17607;BME280;69222;52.242;20.980;2023-05-20T00:16:28;101446.84;;;13.77;73.13
17607;BME280;69222;52.242;20.980;2023-05-20T00:18:57;101442.53;;;13.78;72.77
17607;BME280;69222;52.242;20.980;2023-05-20T00:21:25;101439.91;;;13.76;72.77
17607;BME280;69222;52.242;20.980;2023-05-20T00:23:53;101432.19;;;13.73;72.85
17607;BME280;69222;52.242;20.980;2023-05-20T00:26:21;101436.50;;;13.70;72.58
17607;BME280;69222;52.242;20.980;2023-05-20T00:28:49;101427.00;;;13.67;73.19
17607;BME280;69222;52.242;20.980;2023-05-20T00:31:17;101431.31;;;13.67;73.28
17607;BME280;69222;52.242;20.980;2023-05-20T00:33:45;101436.50;;;13.64;72.99
17607;BME280;69222;52.242;20.980;2023-05-20T00:36:14;101432.19;;;13.64;73.28
17607;BME280;69222;52.242;20.980;2023-05-20T00:38:42;101429.59;;;13.63;72.56
17607;BME280;69222;52.242;20.980;2023-05-20T00:41:10;101431.31;;;13.61;73.22
17607;BME280;69222;52.242;20.980;2023-05-20T00:43:38;101427.88;;;13.59;73.10
17607;BME280;69222;52.242;20.980;2023-05-20T00:46:07;101430.47;;;13.59;73.18
17607;BME280;69222;52.242;20.980;2023-05-20T00:48:39;101438.22;;;13.57;72.89
17607;BME280;69222;52.242;20.980;2023-05-20T00:51:07;101433.91;;;13.58;73.10
17607;BME280;69222;52.242;20.980;2023-05-20T00:53:37;101428.72;;;13.58;73.19
17607;BME280;69222;52.242;20.980;2023-05-20T00:56:06;101428.75;;;13.56;73.30
17607;BME280;69222;52.242;20.980;2023-05-20T00:58:34;101431.31;;;13.58;72.70
17607;BME280;69222;52.242;20.980;2023-05-20T01:01:03;101427.88;;;13.54;72.80
17607;BME280;69222;52.242;20.980;2023-05-20T01:03:32;101437.38;;;13.52;72.75
17607;BME280;69222;52.242;20.980;2023-05-20T01:06:01;101437.38;;;13.52;73.06
17607;BME280;69222;52.242;20.980;2023-05-20T01:08:29;101432.22;;;13.49;73.31
17607;BME280;69222;52.242;20.980;2023-05-20T01:11:02;101434.78;;;13.47;73.22
17607;BME280;69222;52.242;20.980;2023-05-20T01:13:36;101441.72;;;13.45;72.69
17607;BME280;69222;52.242;20.980;2023-05-20T01:16:07;101436.53;;;13.39;73.20
17607;BME280;69222;52.242;20.980;2023-05-20T01:18:38;101435.66;;;13.36;72.79
17607;BME280;69222;52.242;20.980;2023-05-20T01:21:07;101428.75;;;13.32;73.26
17607;BME280;69222;52.242;20.980;2023-05-20T01:23:39;101437.38;;;13.32;72.96
17607;BME280;69222;52.242;20.980;2023-05-20T01:26:08;101439.97;;;13.29;72.96
17607;BME280;69222;52.242;20.980;2023-05-20T01:28:40;101436.53;;;13.28;73.12
17607;BME280;69222;52.242;20.980;2023-05-20T01:31:13;101429.63;;;13.27;73.46
17607;BME280;69222;52.242;20.980;2023-05-20T01:33:42;101434.81;;;13.24;72.82
17607;BME280;69222;52.242;20.980;2023-05-20T01:36:11;101432.19;;;13.23;73.05
17607;BME280;69222;52.242;20.980;2023-05-20T01:38:41;101439.09;;;13.22;73.31
17607;BME280;69222;52.242;20.980;2023-05-20T01:41:11;101433.94;;;13.22;73.17
17607;BME280;69222;52.242;20.980;2023-05-20T01:43:39;101431.31;;;13.21;73.37
17607;BME280;69222;52.242;20.980;2023-05-20T01:46:07;101426.16;;;13.22;73.70
17607;BME280;69222;52.242;20.980;2023-05-20T01:48:35;101426.16;;;13.22;73.19
17607;BME280;69222;52.242;20.980;2023-05-20T01:51:04;101427.88;;;13.20;73.23
17607;BME280;69222;52.242;20.980;2023-05-20T01:53:32;101427.00;;;13.20;73.37
17607;BME280;69222;52.242;20.980;2023-05-20T01:56:01;101421.84;;;13.20;73.58
17607;BME280;69222;52.242;20.980;2023-05-20T01:58:29;101414.94;;;13.17;73.59
17607;BME280;69222;52.242;20.980;2023-05-20T02:00:57;101417.53;;;13.17;73.17
17607;BME280;69222;52.242;20.980;2023-05-20T02:03:25;101410.63;;;13.18;73.43
17607;BME280;69222;52.242;20.980;2023-05-20T02:05:53;101416.69;;;13.18;73.43
17607;BME280;69222;52.242;20.980;2023-05-20T02:08:21;101413.22;;;13.15;73.44
17607;BME280;69222;52.242;20.980;2023-05-20T02:10:49;101414.09;;;13.12;73.44
17607;BME280;69222;52.242;20.980;2023-05-20T02:13:18;101408.03;;;13.10;73.08
17607;BME280;69222;52.242;20.980;2023-05-20T02:15:46;101411.50;;;13.09;73.12
17607;BME280;69222;52.242;20.980;2023-05-20T02:18:14;101414.09;;;13.08;72.83
17607;BME280;69222;52.242;20.980;2023-05-20T02:20:44;101415.78;;;13.02;72.88
17607;BME280;69222;52.242;20.980;2023-05-20T02:23:12;101420.09;;;12.99;73.56
17607;BME280;69222;52.242;20.980;2023-05-20T02:25:40;101420.97;;;12.98;73.23
17607;BME280;69222;52.242;20.980;2023-05-20T02:28:08;101422.69;;;12.97;73.27
17607;BME280;69222;52.242;20.980;2023-05-20T02:30:37;101426.13;;;12.99;73.29
17607;BME280;69222;52.242;20.980;2023-05-20T02:33:05;101420.97;;;12.99;72.88
17607;BME280;69222;52.242;20.980;2023-05-20T02:35:35;101415.78;;;12.99;73.46
17607;BME280;69222;52.242;20.980;2023-05-20T02:38:03;101419.25;;;12.98;73.20
17607;BME280;69222;52.242;20.980;2023-05-20T02:40:31;101431.31;;;12.99;73.08
17607;BME280;69222;52.242;20.980;2023-05-20T02:42:59;101430.47;;;12.97;72.92
17607;BME280;69222;52.242;20.980;2023-05-20T02:45:28;101432.19;;;12.98;73.63
17607;BME280;69222;52.242;20.980;2023-05-20T02:47:57;101429.59;;;13.01;73.21
17607;BME280;69222;52.242;20.980;2023-05-20T02:50:26;101430.47;;;13.05;73.32
17607;BME280;69222;52.242;20.980;2023-05-20T02:52:54;101435.66;;;13.08;73.43
17607;BME280;69222;52.242;20.980;2023-05-20T02:55:22;101427.00;;;13.11;73.12
17607;BME280;69222;52.242;20.980;2023-05-20T02:57:50;101426.16;;;13.12;73.36
17607;BME280;69222;52.242;20.980;2023-05-20T03:00:19;101422.69;;;13.13;72.73
17607;BME280;69222;52.242;20.980;2023-05-20T03:02:48;101421.84;;;13.12;72.84
17607;BME280;69222;52.242;20.980;2023-05-20T03:05:17;101426.16;;;13.12;73.00
17607;BME280;69222;52.242;20.980;2023-05-20T03:07:45;101427.88;;;13.10;73.07
17607;BME280;69222;52.242;20.980;2023-05-20T03:10:14;101427.03;;;13.08;73.13
17607;BME280;69222;52.242;20.980;2023-05-20T03:12:42;101427.00;;;13.11;72.61
17607;BME280;69222;52.242;20.980;2023-05-20T03:15:10;101420.97;;;13.12;72.87
17607;BME280;69222;52.242;20.980;2023-05-20T03:17:38;101432.19;;;13.15;72.67
17607;BME280;69222;52.242;20.980;2023-05-20T03:20:07;101420.97;;;13.18;73.00
17607;BME280;69222;52.242;20.980;2023-05-20T03:22:39;101431.31;;;13.21;72.49
17607;BME280;69222;52.242;20.980;2023-05-20T03:25:07;101433.06;;;13.20;72.41
17607;BME280;69222;52.242;20.980;2023-05-20T03:27:36;101427.88;;;13.20;72.52
17607;BME280;69222;52.242;20.980;2023-05-20T03:30:05;101436.50;;;13.21;71.90
17607;BME280;69222;52.242;20.980;2023-05-20T03:32:33;101432.19;;;13.20;72.28
17607;BME280;69222;52.242;20.980;2023-05-20T03:35:01;101433.06;;;13.19;72.52
17607;BME280;69222;52.242;20.980;2023-05-20T03:37:29;101436.50;;;13.18;72.66
17607;BME280;69222;52.242;20.980;2023-05-20T03:39:58;101438.22;;;13.17;72.59
17607;BME280;69222;52.242;20.980;2023-05-20T03:42:26;101432.19;;;13.15;72.71
17607;BME280;69222;52.242;20.980;2023-05-20T03:44:54;101433.91;;;13.18;72.52
17607;BME280;69222;52.242;20.980;2023-05-20T03:47:22;101433.91;;;13.19;72.31
17607;BME280;69222;52.242;20.980;2023-05-20T03:49:50;101431.31;;;13.21;72.52
17607;BME280;69222;52.242;20.980;2023-05-20T03:52:18;101422.72;;;13.23;72.78
17607;BME280;69222;52.242;20.980;2023-05-20T03:54:46;101432.22;;;13.27;72.25
17607;BME280;69222;52.242;20.980;2023-05-20T03:57:15;101425.34;;;13.29;72.55
17607;BME280;69222;52.242;20.980;2023-05-20T03:59:43;101427.91;;;13.31;72.12
17607;BME280;69222;52.242;20.980;2023-05-20T04:02:11;101430.47;;;13.33;72.27
17607;BME280;69222;52.242;20.980;2023-05-20T04:04:39;101429.63;;;13.35;71.81
17607;BME280;69222;52.242;20.980;2023-05-20T04:07:08;101431.34;;;13.39;72.23
17607;BME280;69222;52.242;20.980;2023-05-20T04:09:37;101439.97;;;13.43;72.42
17607;BME280;69222;52.242;20.980;2023-05-20T04:12:05;101426.16;;;13.48;72.23
17607;BME280;69222;52.242;20.980;2023-05-20T04:14:34;101434.78;;;13.53;72.08
17607;BME280;69222;52.242;20.980;2023-05-20T04:17:02;101429.59;;;13.57;71.47
17607;BME280;69222;52.242;20.980;2023-05-20T04:19:31;101435.66;;;13.60;71.68
17607;BME280;69222;52.242;20.980;2023-05-20T04:22:00;101440.81;;;13.66;71.49
17607;BME280;69222;52.242;20.980;2023-05-20T04:24:28;101443.38;;;13.72;71.32
17607;BME280;69222;52.242;20.980;2023-05-20T04:26:55;101448.56;;;13.78;71.21
17607;BME280;69222;52.242;20.980;2023-05-20T04:29:24;101440.78;;;13.85;70.91
17607;BME280;69222;52.242;20.980;2023-05-20T04:31:53;101446.81;;;13.90;70.65
17607;BME280;69222;52.242;20.980;2023-05-20T04:34:24;101438.13;;;13.95;70.63
17607;BME280;69222;52.242;20.980;2023-05-20T04:36:52;101446.75;;;14.07;70.71
17607;BME280;69222;52.242;20.980;2023-05-20T04:39:20;101439.81;;;14.18;70.73
17607;BME280;69222;52.242;20.980;2023-05-20T04:41:48;101436.28;;;14.31;69.87
17607;BME280;69222;52.242;20.980;2023-05-20T04:44:16;101436.25;;;14.40;69.72
17607;BME280;69222;52.242;20.980;2023-05-20T04:46:44;101430.16;;;14.50;68.98
17607;BME280;69222;52.242;20.980;2023-05-20T04:49:13;101427.53;;;14.60;69.38
17607;BME280;69222;52.242;20.980;2023-05-20T04:51:41;101420.56;;;14.69;68.47
17607;BME280;69222;52.242;20.980;2023-05-20T04:54:09;101432.56;;;14.81;68.26
17607;BME280;69222;52.242;20.980;2023-05-20T04:56:37;101429.91;;;14.90;68.23
17607;BME280;69222;52.242;20.980;2023-05-20T04:59:05;101425.53;;;14.98;67.72
17607;BME280;69222;52.242;20.980;2023-05-20T05:01:35;101430.66;;;15.08;67.49
17607;BME280;69222;52.242;20.980;2023-05-20T05:04:03;101428.00;;;15.12;66.72
17607;BME280;69222;52.242;20.980;2023-05-20T05:06:32;101431.41;;;15.22;66.85
17607;BME280;69222;52.242;20.980;2023-05-20T05:09:00;101435.66;;;15.32;66.46
17607;BME280;69222;52.242;20.980;2023-05-20T05:11:28;101444.25;;;15.37;65.85
17607;BME280;69222;52.242;20.980;2023-05-20T05:13:56;101439.03;;;15.37;66.02
17607;BME280;69222;52.242;20.980;2023-05-20T05:16:24;101437.13;;;15.58;66.03
17607;BME280;69222;52.242;20.980;2023-05-20T05:18:52;101439.50;;;15.82;64.90
17607;BME280;69222;52.242;20.980;2023-05-20T05:21:20;101439.13;;;16.14;64.06
17607;BME280;69222;52.242;20.980;2023-05-20T05:23:49;101424.53;;;16.69;63.30
17607;BME280;69222;52.242;20.980;2023-05-20T05:26:17;101420.31;;;17.66;59.17
17607;BME280;69222;52.242;20.980;2023-05-20T05:28:45;101422.06;;;18.12;57.81
17607;BME280;69222;52.242;20.980;2023-05-20T05:31:13;101423.16;;;18.80;56.24
17607;BME280;69222;52.242;20.980;2023-05-20T05:33:41;101434.38;;;18.86;55.14
17607;BME280;69222;52.242;20.980;2023-05-20T05:36:09;101426.75;;;19.12;54.07
17607;BME280;69222;52.242;20.980;2023-05-20T05:38:37;101423.13;;;20.16;52.73
17607;BME280;69222;52.242;20.980;2023-05-20T05:41:06;101420.88;;;20.33;50.17
17607;BME280;69222;52.242;20.980;2023-05-20T05:43:34;101422.78;;;19.97;50.46
17607;BME280;69222;52.242;20.980;2023-05-20T05:46:02;101426.53;;;19.54;50.72
17607;BME280;69222;52.242;20.980;2023-05-20T05:48:30;101436.41;;;19.44;52.46
17607;BME280;69222;52.242;20.980;2023-05-20T05:50:58;101433.81;;;19.43;52.78
17607;BME280;69222;52.242;20.980;2023-05-20T05:53:26;101438.50;;;19.64;53.19
17607;BME280;69222;52.242;20.980;2023-05-20T05:55:54;101432.94;;;19.76;51.99
17607;BME280;69222;52.242;20.980;2023-05-20T05:58:23;101427.63;;;19.79;52.25
17607;BME280;69222;52.242;20.980;2023-05-20T06:00:51;101430.19;;;20.12;51.10
17607;BME280;69222;52.242;20.980;2023-05-20T06:03:20;101428.72;;;20.03;50.48
17607;BME280;69222;52.242;20.980;2023-05-20T06:05:48;101436.81;;;20.25;50.74
17607;BME280;69222;52.242;20.980;2023-05-20T06:08:16;101430.03;;;20.76;49.67
17607;BME280;69222;52.242;20.980;2023-05-20T06:10:46;101427.38;;;20.78;48.77
17607;BME280;69222;52.242;20.980;2023-05-20T06:13:14;101435.97;;;20.55;49.67
17607;BME280;69222;52.242;20.980;2023-05-20T06:15:44;101432.91;;;20.39;49.88
17607;BME280;69222;52.242;20.980;2023-05-20T06:18:12;101429.75;;;20.27;50.20
17607;BME280;69222;52.242;20.980;2023-05-20T06:20:40;101431.34;;;20.32;50.86
17607;BME280;69222;52.242;20.980;2023-05-20T06:23:08;101429.03;;;20.52;50.36
17607;BME280;69222;52.242;20.980;2023-05-20T06:25:36;101425.03;;;20.95;49.41
17607;BME280;69222;52.242;20.980;2023-05-20T06:28:04;101422.22;;;21.54;48.31
17607;BME280;69222;52.242;20.980;2023-05-20T06:30:31;101421.22;;;22.05;46.71
17607;BME280;69222;52.242;20.980;2023-05-20T06:33:01;101420.06;;;22.12;45.15
17607;BME280;69222;52.242;20.980;2023-05-20T06:35:29;101421.47;;;21.99;45.87
17607;BME280;69222;52.242;20.980;2023-05-20T06:37:56;101420.16;;;21.87;45.90
17607;BME280;69222;52.242;20.980;2023-05-20T06:40:26;101415.66;;;21.91;46.59
17607;BME280;69222;52.242;20.980;2023-05-20T06:42:54;101414.91;;;22.11;46.09
17607;BME280;69222;52.242;20.980;2023-05-20T06:45:22;101414.84;;;22.36;45.41
17607;BME280;69222;52.242;20.980;2023-05-20T06:47:50;101412.25;;;22.80;45.05
17607;BME280;69222;52.242;20.980;2023-05-20T06:50:24;101402.44;;;24.80;41.52
17607;BME280;69222;52.242;20.980;2023-05-20T06:52:53;101395.88;;;26.55;37.44
17607;BME280;69222;52.242;20.980;2023-05-20T06:55:21;101392.06;;;27.20;35.13
17607;BME280;69222;52.242;20.980;2023-05-20T06:57:49;101384.38;;;27.89;33.93
17607;BME280;69222;52.242;20.980;2023-05-20T07:00:17;101386.03;;;29.00;32.75
17607;BME280;69222;52.242;20.980;2023-05-20T07:02:45;101386.91;;;30.50;29.91
17607;BME280;69222;52.242;20.980;2023-05-20T07:05:13;101385.13;;;31.33;28.19
17607;BME280;69222;52.242;20.980;2023-05-20T07:07:42;101389.53;;;31.45;26.77
17607;BME280;69222;52.242;20.980;2023-05-20T07:10:13;101379.69;;;31.79;27.31
17607;BME280;69222;52.242;20.980;2023-05-20T07:12:41;101377.09;;;32.66;26.56
17607;BME280;69222;52.242;20.980;2023-05-20T07:15:10;101368.38;;;33.27;25.73
17607;BME280;69222;52.242;20.980;2023-05-20T07:17:38;101379.09;;;33.57;24.56
17607;BME280;69222;52.242;20.980;2023-05-20T07:20:07;101374.69;;;33.87;24.38
17607;BME280;69222;52.242;20.980;2023-05-20T07:22:34;101370.56;;;34.04;23.79
17607;BME280;69222;52.242;20.980;2023-05-20T07:25:05;101379.50;;;33.93;22.98
17607;BME280;69222;52.242;20.980;2023-05-20T07:27:33;101375.22;;;34.11;22.97
17607;BME280;69222;52.242;20.980;2023-05-20T07:30:01;101374.72;;;33.97;23.83
17607;BME280;69222;52.242;20.980;2023-05-20T07:32:28;101369.34;;;34.56;23.43
17607;BME280;69222;52.242;20.980;2023-05-20T07:34:56;101371.31;;;35.40;22.26
17607;BME280;69222;52.242;20.980;2023-05-20T07:37:24;101361.81;;;35.46;21.83
17607;BME280;69222;52.242;20.980;2023-05-20T07:39:53;101366.59;;;35.15;22.18
17607;BME280;69222;52.242;20.980;2023-05-20T07:42:22;101365.50;;;35.07;22.27
17607;BME280;69222;52.242;20.980;2023-05-20T07:44:50;101359.81;;;35.85;21.89
17607;BME280;69222;52.242;20.980;2023-05-20T07:47:18;101358.97;;;36.66;20.99
17607;BME280;69222;52.242;20.980;2023-05-20T07:49:46;101354.97;;;37.14;20.63
17607;BME280;69222;52.242;20.980;2023-05-20T07:52:14;101354.75;;;37.67;20.04
17607;BME280;69222;52.242;20.980;2023-05-20T07:54:45;101352.91;;;37.76;19.17
17607;BME280;69222;52.242;20.980;2023-05-20T07:57:13;101354.31;;;36.94;20.25
17607;BME280;69222;52.242;20.980;2023-05-20T07:59:42;101361.50;;;35.86;21.48
17607;BME280;69222;52.242;20.980;2023-05-20T08:02:10;101352.69;;;34.92;22.32
17607;BME280;69222;52.242;20.980;2023-05-20T08:04:40;101355.19;;;33.65;24.10
17607;BME280;69222;52.242;20.980;2023-05-20T08:07:08;101356.84;;;32.63;25.74
17607;BME280;69222;52.242;20.980;2023-05-20T08:09:36;101353.78;;;31.59;26.76
17607;BME280;69222;52.242;20.980;2023-05-20T08:12:05;101360.91;;;30.54;27.72
17607;BME280;69222;52.242;20.980;2023-05-20T08:14:32;101358.94;;;29.46;29.91
17607;BME280;69222;52.242;20.980;2023-05-20T08:17:02;101365.59;;;28.48;31.39
17607;BME280;69222;52.242;20.980;2023-05-20T08:19:30;101366.28;;;27.67;33.36
17607;BME280;69222;52.242;20.980;2023-05-20T08:21:58;101369.69;;;26.96;34.88
17607;BME280;69222;52.242;20.980;2023-05-20T08:24:26;101374.03;;;26.67;35.78
17607;BME280;69222;52.242;20.980;2023-05-20T08:26:53;101369.44;;;26.55;36.49
17607;BME280;69222;52.242;20.980;2023-05-20T08:29:21;101365.53;;;26.30;37.20
17607;BME280;69222;52.242;20.980;2023-05-20T08:31:49;101363.22;;;26.08;37.18
17607;BME280;69222;52.242;20.980;2023-05-20T08:34:19;101365.00;;;25.92;37.63
17607;BME280;69222;52.242;20.980;2023-05-20T08:36:46;101362.94;;;25.81;38.01
17607;BME280;69222;52.242;20.980;2023-05-20T08:39:15;101365.63;;;25.64;38.79
17607;BME280;69222;52.242;20.980;2023-05-20T08:41:46;101353.72;;;25.39;39.26
17607;BME280;69222;52.242;20.980;2023-05-20T08:44:13;101362.44;;;25.24;39.04
17607;BME280;69222;52.242;20.980;2023-05-20T08:46:44;101360.59;;;25.26;39.12
17607;BME280;69222;52.242;20.980;2023-05-20T08:49:12;101351.22;;;25.36;38.94
17607;BME280;69222;52.242;20.980;2023-05-20T08:51:41;101351.03;;;25.57;38.81
17607;BME280;69222;52.242;20.980;2023-05-20T08:54:12;101351.38;;;25.84;38.67
17607;BME280;69222;52.242;20.980;2023-05-20T08:56:42;101352.56;;;26.10;38.96
17607;BME280;69222;52.242;20.980;2023-05-20T08:59:10;101347.88;;;26.31;38.72
17607;BME280;69222;52.242;20.980;2023-05-20T09:01:41;101349.84;;;26.11;37.89
17607;BME280;69222;52.242;20.980;2023-05-20T09:04:09;101347.66;;;26.04;38.44
17607;BME280;69222;52.242;20.980;2023-05-20T09:06:45;101346.53;;;26.08;38.61
17607;BME280;69222;52.242;20.980;2023-05-20T09:09:14;101343.97;;;26.22;38.82
17607;BME280;69222;52.242;20.980;2023-05-20T09:11:42;101339.03;;;26.16;38.20
17607;BME280;69222;52.242;20.980;2023-05-20T09:14:10;101348.97;;;25.79;38.22
17607;BME280;69222;52.242;20.980;2023-05-20T09:16:39;101344.97;;;25.54;39.27
17607;BME280;69222;52.242;20.980;2023-05-20T09:19:07;101343.66;;;25.30;39.58
17607;BME280;69222;52.242;20.980;2023-05-20T09:21:36;101335.69;;;25.14;39.83
17607;BME280;69222;52.242;20.980;2023-05-20T09:24:06;101337.53;;;24.95;41.06
17607;BME280;69222;52.242;20.980;2023-05-20T09:26:34;101330.69;;;24.73;40.95
17607;BME280;69222;52.242;20.980;2023-05-20T09:29:03;101337.00;;;24.71;41.26
17607;BME280;69222;52.242;20.980;2023-05-20T09:31:31;101343.19;;;24.87;41.44
17607;BME280;69222;52.242;20.980;2023-05-20T09:34:00;101337.31;;;24.82;40.99
17607;BME280;69222;52.242;20.980;2023-05-20T09:36:28;101338.75;;;24.70;41.01
17607;BME280;69222;52.242;20.980;2023-05-20T09:38:59;101326.75;;;24.65;41.07
17607;BME280;69222;52.242;20.980;2023-05-20T09:41:34;101338.06;;;24.67;41.18
17607;BME280;69222;52.242;20.980;2023-05-20T09:44:05;101334.59;;;24.83;41.06
17607;BME280;69222;52.242;20.980;2023-05-20T09:46:34;101339.22;;;24.96;40.49
17607;BME280;69222;52.242;20.980;2023-05-20T09:49:03;101328.47;;;25.00;39.72
17607;BME280;69222;52.242;20.980;2023-05-20T09:51:32;101332.16;;;24.96;40.20
17607;BME280;69222;52.242;20.980;2023-05-20T09:54:01;101329.31;;;25.51;40.02
17607;BME280;69222;52.242;20.980;2023-05-20T09:56:33;101327.97;;;26.71;36.92
17607;BME280;69222;52.242;20.980;2023-05-20T09:59:01;101329.41;;;27.50;35.03
17607;BME280;69222;52.242;20.980;2023-05-20T10:01:31;101323.53;;;27.87;33.95
17607;BME280;69222;52.242;20.980;2023-05-20T10:04:00;101320.31;;;27.68;34.02
17607;BME280;69222;52.242;20.980;2023-05-20T10:06:46;101308.75;;;28.64;33.22
17607;BME280;69222;52.242;20.980;2023-05-20T10:09:27;101315.41;;;29.23;32.02
17607;BME280;69222;52.242;20.980;2023-05-20T10:12:06;101316.09;;;30.37;30.19
17607;BME280;69222;52.242;20.980;2023-05-20T10:14:49;101303.94;;;30.45;29.81
17607;BME280;69222;52.242;20.980;2023-05-20T10:17:34;101304.81;;;29.10;31.42
17607;BME280;69222;52.242;20.980;2023-05-20T10:20:06;101312.72;;;28.97;32.26
17607;BME280;69222;52.242;20.980;2023-05-20T10:22:37;101310.56;;;28.64;32.45
17607;BME280;69222;52.242;20.980;2023-05-20T10:25:11;101315.78;;;27.70;34.03
17607;BME280;69222;52.242;20.980;2023-05-20T10:27:44;101308.88;;;26.66;36.44
17607;BME280;69222;52.242;20.980;2023-05-20T10:30:16;101317.97;;;25.83;37.44
17607;BME280;69222;52.242;20.980;2023-05-20T10:32:51;101309.66;;;25.57;38.23
17607;BME280;69222;52.242;20.980;2023-05-20T10:35:24;101304.19;;;26.85;37.10
17607;BME280;69222;52.242;20.980;2023-05-20T10:37:54;101286.72;;;28.89;34.53
17607;BME280;69222;52.242;20.980;2023-05-20T10:40:22;101290.13;;;30.16;31.24
17607;BME280;69222;52.242;20.980;2023-05-20T10:42:53;101288.44;;;29.91;30.87
17607;BME280;69222;52.242;20.980;2023-05-20T10:45:27;101283.19;;;29.53;30.76
17607;BME280;69222;52.242;20.980;2023-05-20T10:47:58;101272.34;;;29.06;31.92
17607;BME280;69222;52.242;20.980;2023-05-20T10:50:27;101271.97;;;28.85;33.20
17607;BME280;69222;52.242;20.980;2023-05-20T10:53:02;101263.94;;;29.99;31.82
17607;BME280;69222;52.242;20.980;2023-05-20T10:55:40;101263.56;;;31.54;29.31
17607;BME280;69222;52.242;20.980;2023-05-20T10:58:10;101251.53;;;32.67;27.22
17607;BME280;69222;52.242;20.980;2023-05-20T11:00:38;101264.28;;;32.11;26.17
17607;BME280;69222;52.242;20.980;2023-05-20T11:03:06;101270.03;;;31.95;26.89
17607;BME280;69222;52.242;20.980;2023-05-20T11:05:35;101254.56;;;31.66;26.68
17607;BME280;69222;52.242;20.980;2023-05-20T11:08:04;101258.53;;;29.76;30.42
17607;BME280;69222;52.242;20.980;2023-05-20T11:10:55;101250.13;;;29.07;32.26
17607;BME280;69222;52.242;20.980;2023-05-20T11:13:25;101248.81;;;28.49;32.82
17607;BME280;69222;52.242;20.980;2023-05-20T11:15:53;101240.06;;;28.34;32.17
17607;BME280;69222;52.242;20.980;2023-05-20T11:18:21;101237.69;;;28.17;32.55
17607;BME280;69222;52.242;20.980;2023-05-20T11:20:49;101238.75;;;28.27;32.24
17607;BME280;69222;52.242;20.980;2023-05-20T11:23:19;101242.50;;;27.56;34.11
17607;BME280;69222;52.242;20.980;2023-05-20T11:25:49;101232.19;;;26.80;35.31
17607;BME280;69222;52.242;20.980;2023-05-20T11:28:18;101232.09;;;27.53;35.06
17607;BME280;69222;52.242;20.980;2023-05-20T11:30:48;101217.44;;;28.56;32.99
17607;BME280;69222;52.242;20.980;2023-05-20T11:33:17;101226.25;;;29.07;32.08
17607;BME280;69222;52.242;20.980;2023-05-20T11:35:46;101223.00;;;29.41;31.58
17607;BME280;69222;52.242;20.980;2023-05-20T11:38:15;101227.81;;;29.72;31.44
17607;BME280;69222;52.242;20.980;2023-05-20T11:40:44;101229.28;;;29.40;30.96
17607;BME280;69222;52.242;20.980;2023-05-20T11:43:17;101224.91;;;29.02;31.69
17607;BME280;69222;52.242;20.980;2023-05-20T11:45:54;101232.38;;;29.33;31.42
17607;BME280;69222;52.242;20.980;2023-05-20T11:48:25;101232.44;;;29.81;31.21
17607;BME280;69222;52.242;20.980;2023-05-20T11:50:54;101228.31;;;30.25;30.28
17607;BME280;69222;52.242;20.980;2023-05-20T11:53:23;101231.09;;;30.24;29.56
17607;BME280;69222;52.242;20.980;2023-05-20T11:55:52;101236.31;;;30.01;29.51
17607;BME280;69222;52.242;20.980;2023-05-20T11:58:21;101225.72;;;29.89;29.88
17607;BME280;69222;52.242;20.980;2023-05-20T12:00:51;101220.28;;;29.66;30.15
17607;BME280;69222;52.242;20.980;2023-05-20T12:03:34;101229.13;;;29.17;31.21
17607;BME280;69222;52.242;20.980;2023-05-20T12:06:03;101224.00;;;28.50;31.46
17607;BME280;69222;52.242;20.980;2023-05-20T12:08:31;101223.47;;;27.64;32.75
17607;BME280;69222;52.242;20.980;2023-05-20T12:10:59;101218.81;;;27.40;33.49
17607;BME280;69222;52.242;20.980;2023-05-20T12:13:27;101218.03;;;27.38;33.92
17607;BME280;69222;52.242;20.980;2023-05-20T12:15:56;101225.03;;;27.39;33.79
17607;BME280;69222;52.242;20.980;2023-05-20T12:18:24;101217.56;;;27.32;35.20
17607;BME280;69222;52.242;20.980;2023-05-20T12:20:52;101219.00;;;27.23;34.84
17607;BME280;69222;52.242;20.980;2023-05-20T12:23:20;101227.44;;;27.15;35.68
17607;BME280;69222;52.242;20.980;2023-05-20T12:25:48;101223.91;;;26.86;35.63
17607;BME280;69222;52.242;20.980;2023-05-20T12:28:16;101235.75;;;26.50;36.71
17607;BME280;69222;52.242;20.980;2023-05-20T12:30:44;101221.38;;;25.94;37.23
17607;BME280;69222;52.242;20.980;2023-05-20T12:33:13;101228.09;;;25.52;38.53
17607;BME280;69222;52.242;20.980;2023-05-20T12:35:42;101228.63;;;25.10;39.29
17607;BME280;69222;52.242;20.980;2023-05-20T12:38:11;101228.56;;;24.94;39.34
17607;BME280;69222;52.242;20.980;2023-05-20T12:40:39;101230.09;;;24.98;39.36
17607;BME280;69222;52.242;20.980;2023-05-20T12:43:07;101227.72;;;24.94;39.36
17607;BME280;69222;52.242;20.980;2023-05-20T12:45:35;101223.25;;;24.78;40.02
17607;BME280;69222;52.242;20.980;2023-05-20T12:48:04;101227.91;;;24.73;39.94
17607;BME280;69222;52.242;20.980;2023-05-20T12:50:34;101218.38;;;24.71;39.97